createdAt,value
2023-01-05T00:07:07.527Z,5.31
2023-01-05T00:17:33.937Z,5.37
2023-01-05T00:27:43.253Z,5.26
2023-01-05T00:37:45.754Z,5.28
2023-01-05T00:47:48.058Z,5.30
2023-01-05T00:57:53.907Z,5.32
2023-01-05T01:07:55.617Z,5.45
2023-01-05T01:17:57.403Z,5.67
2023-01-05T01:27:59.095Z,5.88
2023-01-05T01:38:01.806Z,5.98
2023-01-05T01:48:09.208Z,6.03
2023-01-05T01:58:15.289Z,6.01
2023-01-05T02:08:25.686Z,6.07
2023-01-05T02:18:55.207Z,6.11
2023-01-05T02:29:26.028Z,6.07
2023-01-05T02:39:44.014Z,6.02
2023-01-05T02:49:45.939Z,6.03
2023-01-05T02:59:54.641Z,6.07
2023-01-05T03:09:56.654Z,6.02
2023-01-05T03:20:02.745Z,6.08
2023-01-05T03:30:26.999Z,6.19
2023-01-05T03:40:32.441Z,6.17
2023-01-05T03:50:36.916Z,6.07
2023-01-05T04:00:39.615Z,5.96
2023-01-05T04:10:41.404Z,5.88
2023-01-05T04:20:43.182Z,5.89
2023-01-05T04:30:45.230Z,5.90
2023-01-05T04:40:52.131Z,5.92
2023-01-05T04:50:56.114Z,5.94
2023-01-05T05:01:02.015Z,6.10
2023-01-05T05:11:06.267Z,6.24
2023-01-05T05:21:09.000Z,6.30
2023-01-05T05:31:10.887Z,6.28
2023-01-05T05:41:13.810Z,6.11
2023-01-05T05:51:15.617Z,6.03
2023-01-05T06:01:17.562Z,5.81
2023-01-05T06:11:22.454Z,5.73
2023-01-05T06:21:24.274Z,5.64
2023-01-05T06:31:26.162Z,5.54
2023-01-05T06:41:27.931Z,5.46
2023-01-05T06:51:29.661Z,5.44
2023-01-05T07:01:39.244Z,5.58
2023-01-05T07:11:42.150Z,5.68
2023-01-05T07:21:45.029Z,5.92
2023-01-05T07:31:49.948Z,5.97
2023-01-05T07:41:51.665Z,5.90
2023-01-05T07:51:55.361Z,5.92
2023-01-05T08:01:58.737Z,5.79
2023-01-05T08:12:00.564Z,5.75
2023-01-05T08:22:03.258Z,6.00
2023-01-05T08:32:11.839Z,5.91
2023-01-05T08:42:13.828Z,5.80
2023-01-05T08:52:18.606Z,5.73
2023-01-05T09:02:25.444Z,5.82
2023-01-05T09:12:33.170Z,6.07
2023-01-05T09:22:36.771Z,6.10
2023-01-05T09:32:38.575Z,6.04
2023-01-05T09:42:45.272Z,6.68
2023-01-05T09:52:49.401Z,6.64
2023-01-05T10:03:10.974Z,7.09
2023-01-05T10:13:32.150Z,7.28
2023-01-05T10:24:12.590Z,7.86
2023-01-05T10:34:22.655Z,7.77
2023-01-05T10:44:46.683Z,7.61
2023-01-05T10:54:54.121Z,7.43
2023-01-05T11:05:07.186Z,7.55
2023-01-05T11:15:15.605Z,7.53
2023-01-05T11:25:33.344Z,7.71
2023-01-05T11:35:38.536Z,7.75
2023-01-05T11:45:55.899Z,8.12
2023-01-05T11:56:04.217Z,8.59
2023-01-05T12:06:24.911Z,9.12
2023-01-05T12:16:46.937Z,9.08
2023-01-05T12:27:26.661Z,9.19
2023-01-05T12:37:56.861Z,9.08
2023-01-05T12:48:12.806Z,9.13
2023-01-05T12:58:30.187Z,9.33
2023-01-05T13:08:38.484Z,9.43
2023-01-05T13:18:54.799Z,9.15
2023-01-05T13:28:57.833Z,9.58
2023-01-05T13:39:26.636Z,9.71
2023-01-05T13:49:56.363Z,9.86
2023-01-05T14:00:11.802Z,9.53
2023-01-05T14:10:25.591Z,9.25
2023-01-05T14:20:42.377Z,9.03
2023-01-05T14:30:44.127Z,8.91
2023-01-05T14:40:55.750Z,8.81
2023-01-05T14:51:20.434Z,8.71
2023-01-05T15:01:56.862Z,8.71
2023-01-05T15:12:13.770Z,8.62
2023-01-05T15:22:53.150Z,8.68
2023-01-05T15:33:27.811Z,8.58
2023-01-05T15:43:32.228Z,8.55
2023-01-05T15:53:38.316Z,8.57
2023-01-05T16:03:42.375Z,8.60
2023-01-05T16:13:52.078Z,8.93
2023-01-05T16:24:00.125Z,8.32
2023-01-05T16:34:29.628Z,8.21
2023-01-05T16:44:34.475Z,8.14
2023-01-05T16:54:41.785Z,8.16
2023-01-05T17:04:43.710Z,8.37
2023-01-05T17:14:46.832Z,8.68
2023-01-05T17:24:48.759Z,8.54
2023-01-05T17:34:56.561Z,8.60
2023-01-05T17:44:59.919Z,8.55
2023-01-05T17:55:01.775Z,8.47
2023-01-05T18:05:06.070Z,8.21
2023-01-05T18:15:10.786Z,8.57
2023-01-05T18:25:16.747Z,8.95
2023-01-05T18:35:20.653Z,9.01
2023-01-05T18:45:31.879Z,9.13
2023-01-05T18:55:34.191Z,9.00
2023-01-05T19:05:43.240Z,8.92
2023-01-05T19:15:48.261Z,8.95
2023-01-05T19:25:50.547Z,8.86
2023-01-05T19:35:52.612Z,8.77
2023-01-05T19:46:01.398Z,8.71
2023-01-05T19:56:14.279Z,8.75
2023-01-05T20:06:25.842Z,8.84
2023-01-05T20:16:28.060Z,8.99
2023-01-05T20:26:32.052Z,8.78
2023-01-05T20:36:35.716Z,8.71
2023-01-05T20:46:44.348Z,8.54
2023-01-05T21:06:46.392Z,8.21
2023-01-05T21:16:55.101Z,7.97
2023-01-05T21:26:58.274Z,8.03
2023-01-05T21:37:01.281Z,8.16
2023-01-05T21:47:06.633Z,8.30
2023-01-05T21:57:08.674Z,8.22
2023-01-05T22:07:10.589Z,7.95
2023-01-05T22:17:12.260Z,7.89
2023-01-05T22:27:14.221Z,7.76
2023-01-05T22:37:17.725Z,7.74
2023-01-05T22:47:20.716Z,7.74
2023-01-05T22:57:23.000Z,7.72
2023-01-05T23:07:28.982Z,7.71
2023-01-05T23:17:31.765Z,7.69
2023-01-05T23:27:33.609Z,7.85
2023-01-05T23:37:36.732Z,8.03
2023-01-05T23:47:38.389Z,8.19
2023-01-05T23:57:41.907Z,8.30
